Wild Horse, Colorado
Current Conditions -  °F | °C
As of 12:55 PM on Sunday 23 Nov 2014 (Local Time) from KLIC Reporting Station
Clear Clear  
Wind Chill: 28°   Ceiling: Unl
Heat Index: 39°   Visibility: 10mi
Dew Point: 14°   Wind: 24mph
Humidity: 36%   Direction: 360°N
Pressure: 29.75"   Gusts: 30mph
Location:  38.83°N, 103.01°W
Report Text: KLIC 231955Z AUTO 36021G26KT 10SM CLR 04/M10 A2975 RMK AO2 PK WND 36028/1904 SLP061 T00391100
Loading
Personal Weather Stations






























Interactive Weather Map New forecast layout! Learn more

10-Day Weather Forecast

Advertisements
Track Severe Weather on mobile